Terminal Aerodrome Forecast
Issued by NWS Shreveport, LA

Home | Current Version | Previous Version | Text Only | Print | Product List | Glossary On
Versions: 1 2 3 4 5 6 7 8 9 10 11 12 13 14
000
FTUS44 KSHV 201145
TAFTYR
TAF
KTYR 201145Z 2012/2112 14008KT P6SM SCT180 BKN250
     FM201300 18007KT P6SM SCT020 BKN180 OVC250
     FM201500 17008KT P6SM SCT030 BKN150 OVC250
     FM201700 17009KT P6SM VCTS BKN040CB BKN150 OVC250
     FM210100 13005KT P6SM SCT150 BKN250=

USA.gov is the U.S. government's official web portal to all federal, state and local government web resources and services.